Boras — TCGU — position and weather

sailwx.info

Track history (hours):
 
Tides and Currents Weather Stations Pressure Air Temp Water Temp Dewpoint Dewpoint Depression Visibility Wind Speed Wind Dir Waves Ship Positions

Boras

Last reported at 2014-Sep-12 03:07 UTC. Time now 2014-Sep-16 13:24 UTC.
Position N 41°00' E 028°60'.

Length 103 m; draft 4 m.

Type: Cargo ship. MMSI: 271000352.

Date/timePositionNaut miles runAvg speedWind from/ knotsBaromVisibWave heightAir tempDewpointWater temp
2014-Sep-12 03:07N 41°00' E 028°60'5 7.4
2014-Sep-12 02:30N 40°56' E 028°60'9 8.0
2014-Sep-12 01:23N 40°47' E 029°02'6 6.7
2014-Sep-12 00:33N 40°42' E 029°04'1 0.5
2014-Sep-11 23:33N 40°42' E 029°04'1 0.6
2014-Sep-11 22:34N 40°42' E 029°05'1 1.0
2014-Sep-11 21:33N 40°42' E 029°06'1 1.1
2014-Sep-11 20:32N 40°43' E 029°07'1 1.1
2014-Sep-11 19:32N 40°44' E 029°08'1 1.3
2014-Sep-11 18:33N 40°45' E 029°09'4 4.5
2014-Sep-11 17:33N 40°46' E 029°15'9 9.2
2014-Sep-11 16:32N 40°45' E 029°27'  
Track history (hours):
 
Tides and Currents Weather Stations Pressure Air Temp Water Temp Dewpoint Dewpoint Depression Visibility Wind Speed Wind Dir Waves Ship Positions

Boras

Last reported at 2014-Sep-12 03:07 UTC. Time now 2014-Sep-16 13:24 UTC.
Position N 41°00' E 028°60'.

Length 103 m; draft 4 m.

Type: Cargo ship. MMSI: 271000352.

Date/timePositionNaut miles runAvg speedWind from/ knotsBaromVisibWave heightAir tempDewpointWater temp
2014-Sep-12 03:07N 41°00' E 028°60'5 7.4
2014-Sep-12 02:30N 40°56' E 028°60'9 8.0
2014-Sep-12 01:23N 40°47' E 029°02'6 6.7
2014-Sep-12 00:33N 40°42' E 029°04'1 0.5
2014-Sep-11 23:33N 40°42' E 029°04'1 0.6
2014-Sep-11 22:34N 40°42' E 029°05'1 1.0
2014-Sep-11 21:33N 40°42' E 029°06'1 1.1
2014-Sep-11 20:32N 40°43' E 029°07'1 1.1
2014-Sep-11 19:32N 40°44' E 029°08'1 1.3
2014-Sep-11 18:33N 40°45' E 029°09'4 4.5
2014-Sep-11 17:33N 40°46' E 029°15'9 9.2
2014-Sep-11 16:32N 40°45' E 029°27'  

Dump ship's entire track history